Central Victoria, Mexico

7:02 PM EDT on April 29, 2017 (GMT -0400)
Puerto Aventuras | | Change Station

Elev 16 ft 20.51 °N, 87.22 °W | Updated 6 minutes ago

Partly Cloudy
Partly Cloudy
86.2 °F
Feels Like 99 °F
N
0.6
Wind Variable Wind from North

Today
High -- | Low -- °F
--% Chance of Precip.
Yesterday
High -- | Low -- °F
Precip. -- in
Pressure 29.86 in
Visibility 6.0 miles
Clouds Mostly Cloudy 1500 ft
Mostly Cloudy 30000 ft
Heat Index 99 °F
Dew Point 77 °F
Humidity 78%
Rainfall Not available.
Snow Depth Not available.
7:20 AM 8:13 PM
Waxing Crescent, 17% visible
METAR MMUN 292248Z 13013KT 6SM BKN015TCU BKN300 29/26 A2986 RMK 8/208 HZY
Pressure 29.86 in
Visibility 6.0 miles
Clouds Mostly Cloudy 1500 ft
Mostly Cloudy 30000 ft
Heat Index 99 °F
Dew Point 77 °F
Humidity 78%
Rainfall Not available.
Snow Depth Not available.
7:20 AM 8:13 PM
Waxing Crescent, 17% visible
METAR MMUN 292248Z 13013KT 6SM BKN015TCU BKN300 29/26 A2986 RMK 8/208 HZY

Get Severe Weather Alerts

Thanks for signing up!

Be on the lookout for a verification email in your inbox.

You'll start receiving the daily forecast at 8 AM.

×

10-Day Weather Forecast

No radar image for this location.
×

Almanac

Astronomy

Apr. 29, 2017 Rise Set
Actual Time
Civil Twilight
Nautical Twilight
Astronomical Twilight
Moon
Length of Visible Light
Length of Day
Tomorrow will be .
, % of the Moon is Illuminated

Today's Extremes

Country Highs Country Lows

Community

WunderPhotos

WunderBlog® & News

Nearby

Air Quality

  Air Quality AQ Index Pollutant
Not available.

Snow Depth

Station Depth Elevation

Earthquake Activity

City Distance Mag. Time & Date
Minimum magnitude displayed is 2.5.

Coastal Water Temperatures

Place Temperature

Stations

Nearby Weather Stations

Station Location Temp. Windchill Dew Point Humidity Wind Precip. Elev Updated Type